Time;durP1;ratioP1;P1;durP2;ratioP2;P2;SDS_P1;SDS_P2;PMS_P1;PMS_P2;Temp;Humidity;BMP_temperature;BMP_pressure;BME280_temperature;BME280_humidity;BME280_pressure;Samples;Min_cycle;Max_cycle;Signal;HPM_P1;HPM_P2
2023/01/28 00:01:17;;;;;;;2.58;1.20;;;22.10;54.10;;;;;;5093584;28;20213;-62
2023/01/28 00:04:06;;;;;;;2.25;1.20;;;22.10;54.10;;;;;;5093749;28;20245;-62
2023/01/28 00:06:54;;;;;;;1.90;1.60;;;22.00;54.10;;;;;;5094051;28;20275;-62
2023/01/28 00:09:42;;;;;;;1.73;1.35;;;22.00;54.10;;;;;;5093164;28;20226;-62
2023/01/28 00:12:30;;;;;;;1.60;1.42;;;22.00;54.10;;;;;;5093546;28;20238;-63
2023/01/28 00:15:18;;;;;;;2.13;1.63;;;22.00;54.10;;;;;;5093565;28;20484;-63
2023/01/28 00:18:06;;;;;;;2.60;1.67;;;22.00;54.10;;;;;;5094594;28;20300;-63
2023/01/28 00:20:59;;;;;;;2.05;1.33;;;21.90;54.10;;;;;;5093043;28;20220;-63
2023/01/28 00:23:50;;;;;;;1.40;1.30;;;21.80;54.00;;;;;;5093929;28;20667;-62
2023/01/28 00:26:38;;;;;;;2.25;1.77;;;21.80;54.20;;;;;;5093679;28;20249;-62
2023/01/28 00:29:26;;;;;;;1.85;1.40;;;21.80;54.10;;;;;;5094507;28;20295;-62
2023/01/28 00:32:14;;;;;;;2.42;1.45;;;21.80;54.50;;;;;;5093122;28;20203;-62
2023/01/28 00:35:02;;;;;;;1.65;1.17;;;21.80;54.30;;;;;;5093511;28;20211;-62
2023/01/28 00:37:52;;;;;;;1.30;1.20;;;21.80;54.20;;;;;;5094756;28;20226;-62
2023/01/28 00:40:40;;;;;;;1.40;1.30;;;21.90;54.20;;;;;;5093105;28;20259;-62
2023/01/28 00:43:28;;;;;;;1.25;1.15;;;21.90;54.20;;;;;;5094668;28;20255;-62
2023/01/28 00:46:16;;;;;;;1.55;1.45;;;22.00;54.20;;;;;;5095005;28;20699;-63
2023/01/28 00:49:05;;;;;;;1.65;1.30;;;21.90;54.00;;;;;;5092890;28;20235;-62
2023/01/28 00:51:53;;;;;;;2.47;1.40;;;22.00;54.10;;;;;;5093749;28;20233;-63
2023/01/28 00:54:42;;;;;;;1.60;1.45;;;22.10;54.00;;;;;;5093350;28;20674;-62
2023/01/28 00:57:30;;;;;;;2.58;1.58;;;22.00;53.80;;;;;;5082822;28;20250;-63
2023/01/28 01:00:19;;;;;;;1.20;1.10;;;22.20;53.90;;;;;;5073839;28;20217;-63
2023/01/28 01:03:07;;;;;;;1.38;1.23;;;22.10;53.70;;;;;;5073444;28;20270;-62
2023/01/28 01:05:57;;;;;;;1.58;1.15;;;22.10;53.70;;;;;;5073923;28;20683;-63
2023/01/28 01:08:49;;;;;;;1.70;1.15;;;21.70;56.80;;;;;;5073893;28;20614;-62
2023/01/28 01:11:39;;;;;;;1.50;1.40;;;22.10;53.60;;;;;;5073597;28;20201;-62
2023/01/28 01:14:27;;;;;;;1.10;1.00;;;22.00;53.50;;;;;;5072901;28;20205;-63
2023/01/28 01:17:15;;;;;;;2.80;1.40;;;22.00;53.60;;;;;;5073736;28;20275;-62
2023/01/28 01:20:03;;;;;;;2.15;1.23;;;22.00;53.60;;;;;;5072977;28;20599;-63
2023/01/28 01:22:51;;;;;;;1.92;1.20;;;21.90;53.60;;;;;;5073441;28;20227;-61
2023/01/28 01:25:39;;;;;;;1.30;1.20;;;21.90;53.70;;;;;;5072310;28;20193;-63
2023/01/28 01:28:29;;;;;;;3.10;1.35;;;21.90;53.80;;;;;;5073354;28;20236;-64
2023/01/28 01:31:20;;;;;;;2.13;1.10;;;21.90;53.90;;;;;;5073253;28;20200;-64
2023/01/28 01:34:09;;;;;;;1.55;1.35;;;21.90;53.90;;;;;;5072503;28;20661;-62
2023/01/28 01:36:57;;;;;;;1.88;1.30;;;21.90;53.90;;;;;;5073547;28;20284;-62
2023/01/28 01:39:45;;;;;;;2.22;1.48;;;21.90;53.90;;;;;;5071802;28;20255;-63
2023/01/28 01:42:33;;;;;;;2.33;1.30;;;21.90;53.90;;;;;;5072187;28;20358;-63
2023/01/28 01:45:23;;;;;;;1.90;1.45;;;21.90;53.80;;;;;;5073167;28;20201;-64
2023/01/28 01:48:17;;;;;;;1.90;1.30;;;21.90;53.70;;;;;;5071831;28;20285;-63
2023/01/28 01:51:09;;;;;;;2.30;1.40;;;22.00;53.70;;;;;;5072670;28;20693;-63
2023/01/28 01:53:59;;;;;;;1.75;1.27;;;22.00;53.60;;;;;;5073203;28;20203;-62
2023/01/28 01:56:49;;;;;;;1.27;1.17;;;22.00;53.60;;;;;;5076735;28;20308;-63
2023/01/28 01:59:38;;;;;;;1.25;1.15;;;22.00;53.50;;;;;;5091774;28;20305;-63
2023/01/28 02:02:27;;;;;;;1.77;1.42;;;22.00;53.50;;;;;;5091141;28;20695;-62
2023/01/28 02:05:18;;;;;;;1.30;1.20;;;22.00;53.50;;;;;;5093592;28;20695;-62
2023/01/28 02:08:22;;;;;;;1.30;1.20;;;21.90;53.50;;;;;;5092486;28;20235;-62
2023/01/28 02:11:10;;;;;;;2.03;1.20;;;21.90;53.50;;;;;;5091839;28;20244;-63
2023/01/28 02:14:03;;;;;;;2.10;1.42;;;21.90;53.50;;;;;;5090869;28;20200;-62
2023/01/28 02:16:51;;;;;;;1.60;1.50;;;21.90;53.60;;;;;;5092808;28;20237;-62
2023/01/28 02:19:46;;;;;;;1.80;1.40;;;21.90;53.60;;;;;;5089908;28;20779;-63
2023/01/28 02:23:04;;;;;;;1.30;1.13;;;21.90;53.60;;;;;;5076979;28;20295;-62
2023/01/28 02:26:26;;;;;;;1.92;1.20;;;21.90;54.20;;;;;;5071576;28;20283;-64
2023/01/28 02:29:24;;;;;;;5.32;1.83;;;21.90;53.40;;;;;;5070667;28;20226;-64
2023/01/28 02:32:18;;;;;;;1.35;1.25;;;22.00;53.60;;;;;;5070907;28;20254;-64
2023/01/28 02:35:12;;;;;;;1.30;1.20;;;22.10;53.50;;;;;;5071618;28;20193;-64
2023/01/28 02:38:07;;;;;;;1.42;1.20;;;22.00;53.40;;;;;;5083522;28;20201;-62
2023/01/28 02:41:05;;;;;;;2.67;1.38;;;22.00;53.40;;;;;;5091935;28;20312;-62
2023/01/28 02:43:53;;;;;;;2.08;1.60;;;22.00;53.30;;;;;;5091174;28;20222;-62
2023/01/28 02:49:51;;;;;;;1.95;0.93;;;22.10;53.30;;;;;;5090577;28;20219;-62
2023/01/28 02:56:12;;;;;;;1.30;1.20;;;22.00;53.10;;;;;;5090290;28;20210;-62
2023/01/28 02:59:29;;;;;;;2.53;1.30;;;22.00;53.10;;;;;;5092659;28;20269;-62
2023/01/28 03:02:20;;;;;;;2.97;1.67;;;22.00;53.20;;;;;;5091566;28;20269;-63
2023/01/28 03:05:17;;;;;;;1.75;1.20;;;22.00;53.20;;;;;;5091866;28;20196;-62
2023/01/28 03:36:49;;;;;;;1.73;1.30;;;22.00;53.30;;;;;;5091032;28;20210;-62
2023/01/28 03:39:37;;;;;;;1.45;1.25;;;22.00;53.20;;;;;;5091307;28;20766;-63
2023/01/28 03:42:25;;;;;;;3.47;1.30;;;22.00;53.20;;;;;;5092111;28;20196;-63
2023/01/28 03:45:14;;;;;;;1.85;1.40;;;22.00;53.10;;;;;;5091963;28;20192;-63
2023/01/28 03:48:02;;;;;;;1.70;1.42;;;22.00;53.10;;;;;;5090803;28;20196;-63
2023/01/28 03:50:53;;;;;;;1.88;1.23;;;22.00;53.00;;;;;;5091660;28;20334;-63
2023/01/28 03:53:41;;;;;;;2.22;1.20;;;22.00;53.00;;;;;;5090928;28;20200;-62
2023/01/28 03:56:36;;;;;;;1.30;1.20;;;22.00;53.00;;;;;;5092801;28;20230;-63
2023/01/28 03:59:24;;;;;;;1.95;1.38;;;22.00;53.00;;;;;;5110448;28;20694;-62
2023/01/28 04:02:14;;;;;;;2.08;1.58;;;22.00;53.00;;;;;;5111984;28;20195;-63
2023/01/28 04:05:05;;;;;;;2.75;1.60;;;21.90;52.90;;;;;;5110503;28;20293;-64
2023/01/28 04:07:56;;;;;;;1.30;1.20;;;21.90;52.90;;;;;;5114297;28;20203;-63
2023/01/28 04:10:44;;;;;;;2.05;1.10;;;21.90;53.00;;;;;;5114551;28;20243;-64
2023/01/28 04:13:32;;;;;;;2.63;1.42;;;21.90;52.90;;;;;;5115640;28;20187;-64
2023/01/28 04:16:20;;;;;;;1.60;1.17;;;21.90;52.90;;;;;;5114704;28;20278;-62
2023/01/28 04:19:08;;;;;;;1.33;1.23;;;21.90;52.90;;;;;;5114782;28;20219;-63
2023/01/28 04:21:56;;;;;;;1.50;1.40;;;21.90;53.00;;;;;;5115142;28;20234;-63
2023/01/28 04:24:46;;;;;;;1.58;1.33;;;21.90;53.00;;;;;;5114144;28;20230;-63
2023/01/28 04:27:34;;;;;;;1.60;1.23;;;21.90;52.90;;;;;;5115414;28;20789;-63
2023/01/28 04:30:23;;;;;;;2.53;1.35;;;21.90;52.90;;;;;;5114464;28;20302;-63
2023/01/28 04:33:11;;;;;;;2.33;1.50;;;22.00;52.90;;;;;;5114008;28;20659;-62
2023/01/28 04:35:59;;;;;;;1.35;1.25;;;22.00;53.00;;;;;;5114642;28;20282;-63
2023/01/28 04:38:47;;;;;;;1.88;1.25;;;21.70;56.20;;;;;;5114914;28;20299;-62
2023/01/28 04:41:36;;;;;;;2.58;1.25;;;22.00;53.10;;;;;;5114844;28;20621;-63
2023/01/28 04:44:24;;;;;;;2.25;1.40;;;22.00;52.80;;;;;;5114892;28;20756;-62
2023/01/28 04:47:12;;;;;;;1.30;1.20;;;21.90;52.70;;;;;;5114917;28;20527;-62
2023/01/28 04:50:00;;;;;;;1.65;1.55;;;21.90;52.70;;;;;;5114030;28;20219;-63
2023/01/28 04:52:48;;;;;;;1.85;1.27;;;21.90;52.70;;;;;;5115021;28;20209;-63
2023/01/28 04:55:37;;;;;;;1.10;1.10;;;21.90;52.70;;;;;;5114839;28;20199;-62
2023/01/28 04:58:26;;;;;;;2.33;1.10;;;21.90;52.80;;;;;;5096552;28;20207;-62
2023/01/28 05:01:14;;;;;;;1.77;0.95;;;21.90;52.70;;;;;;5094000;28;20254;-62
2023/01/28 05:04:04;;;;;;;1.30;1.20;;;21.90;52.70;;;;;;5093555;28;20228;-63
2023/01/28 05:06:52;;;;;;;1.40;1.30;;;21.90;52.70;;;;;;5093728;28;20546;-62
2023/01/28 05:09:40;;;;;;;1.55;1.40;;;22.00;52.80;;;;;;5093356;28;20274;-62
2023/01/28 05:12:29;;;;;;;1.20;1.10;;;22.00;52.70;;;;;;5094297;28;20203;-63
2023/01/28 05:15:19;;;;;;;1.60;1.10;;;22.00;52.60;;;;;;5093522;28;20196;-62
2023/01/28 05:18:07;;;;;;;1.35;1.25;;;22.00;52.60;;;;;;5092697;28;20279;-63
2023/01/28 05:20:55;;;;;;;1.40;1.30;;;22.00;52.50;;;;;;5093701;28;20300;-63
2023/01/28 05:23:43;;;;;;;1.45;1.17;;;22.00;52.50;;;;;;5093581;28;20196;-62
2023/01/28 05:26:32;;;;;;;1.45;1.10;;;22.00;52.40;;;;;;5093663;28;20232;-63
2023/01/28 05:29:20;;;;;;;1.85;1.25;;;22.00;52.40;;;;;;5093102;28;20700;-62
2023/01/28 05:32:09;;;;;;;1.30;1.02;;;22.00;52.30;;;;;;5093252;28;20231;-62
2023/01/28 05:34:57;;;;;;;1.60;1.08;;;22.00;52.40;;;;;;5093121;28;20203;-62
2023/01/28 05:37:45;;;;;;;1.55;1.00;;;22.00;52.40;;;;;;5093450;28;20238;-62
2023/01/28 05:40:33;;;;;;;1.20;1.10;;;22.00;52.30;;;;;;5092384;28;20255;-63
2023/01/28 05:43:21;;;;;;;2.17;1.33;;;22.00;52.30;;;;;;5092970;28;20279;-63
2023/01/28 05:46:09;;;;;;;1.10;1.00;;;21.90;52.10;;;;;;5092607;28;20536;-63
2023/01/28 05:48:58;;;;;;;2.00;1.33;;;21.90;52.30;;;;;;5092809;28;20216;-63
2023/01/28 05:51:47;;;;;;;2.58;1.20;;;22.00;52.30;;;;;;5092868;28;20572;-62
2023/01/28 05:54:35;;;;;;;1.50;1.10;;;21.90;52.20;;;;;;5093467;28;20223;-63
2023/01/28 05:57:23;;;;;;;1.77;1.45;;;21.90;52.20;;;;;;5101463;28;20192;-62
2023/01/28 06:00:13;;;;;;;1.42;1.30;;;21.90;52.20;;;;;;5112468;28;20219;-63
2023/01/28 06:03:02;;;;;;;1.30;1.20;;;21.90;52.20;;;;;;5111540;28;20244;-62
2023/01/28 06:05:51;;;;;;;1.50;1.38;;;21.80;52.80;;;;;;5113324;28;20587;-62
2023/01/28 06:08:41;;;;;;;2.55;1.35;;;21.80;56.10;;;;;;5113375;28;20231;-61
2023/01/28 06:11:29;;;;;;;1.30;1.13;;;21.80;52.30;;;;;;5112002;28;20256;-63
2023/01/28 06:14:17;;;;;;;1.40;1.30;;;21.80;53.00;;;;;;5112482;28;20282;-63
2023/01/28 06:17:05;;;;;;;3.25;1.30;;;21.80;52.40;;;;;;5113385;28;20769;-64
2023/01/28 06:19:53;;;;;;;1.75;1.40;;;21.80;52.50;;;;;;5112197;28;20221;-63
2023/01/28 06:22:43;;;;;;;1.30;1.20;;;21.80;52.40;;;;;;5113390;28;20203;-63
2023/01/28 06:25:31;;;;;;;2.25;1.20;;;21.90;52.50;;;;;;5112028;28;20353;-64
2023/01/28 06:28:19;;;;;;;2.45;1.40;;;21.90;52.40;;;;;;5111438;28;20276;-64
2023/01/28 06:31:07;;;;;;;1.42;1.33;;;21.90;52.30;;;;;;5112213;28;20694;-63
2023/01/28 06:33:55;;;;;;;1.35;1.25;;;21.90;52.20;;;;;;5111547;28;20278;-64
2023/01/28 06:36:43;;;;;;;1.40;1.30;;;22.00;52.30;;;;;;5112950;28;20279;-64
2023/01/28 06:39:32;;;;;;;1.95;1.80;;;22.00;52.10;;;;;;5111781;28;20305;-64
2023/01/28 06:42:20;;;;;;;1.63;1.52;;;22.10;52.20;;;;;;5112537;28;20286;-64
2023/01/28 06:45:09;;;;;;;1.77;1.63;;;22.10;52.00;;;;;;5111955;28;20294;-63
2023/01/28 06:47:57;;;;;;;1.63;1.40;;;22.20;52.00;;;;;;5111430;28;20223;-64
2023/01/28 06:50:47;;;;;;;1.55;1.45;;;22.10;51.90;;;;;;5111410;28;20766;-63
2023/01/28 06:53:35;;;;;;;2.00;1.80;;;22.10;51.90;;;;;;5112544;28;20195;-64
2023/01/28 06:56:24;;;;;;;2.67;1.88;;;22.10;51.90;;;;;;5112052;28;20191;-64
2023/01/28 06:59:12;;;;;;;2.15;1.95;;;22.10;51.90;;;;;;5091024;28;20707;-64
2023/01/28 07:02:00;;;;;;;2.42;1.50;;;22.00;51.80;;;;;;5101917;28;20248;-63
2023/01/28 07:04:48;;;;;;;1.58;1.48;;;22.00;51.90;;;;;;5111960;28;20475;-63
2023/01/28 07:07:37;;;;;;;2.13;1.73;;;21.90;51.80;;;;;;5112642;28;20329;-63
2023/01/28 07:10:28;;;;;;;1.80;1.45;;;21.90;51.80;;;;;;5110890;28;20226;-63
2023/01/28 07:13:18;;;;;;;2.60;1.88;;;21.90;52.00;;;;;;5111647;28;20202;-62
2023/01/28 07:16:07;;;;;;;1.60;1.50;;;21.80;51.90;;;;;;5111192;28;20227;-62
2023/01/28 07:18:55;;;;;;;1.90;1.80;;;21.80;52.00;;;;;;5111827;28;20284;-62
2023/01/28 07:21:43;;;;;;;1.45;1.35;;;21.70;52.00;;;;;;5111772;28;20328;-63
2023/01/28 07:24:32;;;;;;;2.53;1.83;;;21.80;52.10;;;;;;5111247;28;20679;-62
2023/01/28 07:27:20;;;;;;;1.83;1.48;;;21.80;52.10;;;;;;5112487;28;20248;-63
2023/01/28 07:30:11;;;;;;;1.70;1.60;;;21.90;52.20;;;;;;5110617;28;20268;-63
2023/01/28 07:33:00;;;;;;;1.67;1.58;;;21.90;52.10;;;;;;5111979;28;20195;-62
2023/01/28 07:35:49;;;;;;;1.80;1.70;;;21.90;52.00;;;;;;5112913;28;20736;-63
2023/01/28 07:38:37;;;;;;;2.58;1.73;;;22.20;55.70;;;;;;5111921;28;20244;-62
2023/01/28 07:41:25;;;;;;;2.08;1.88;;;22.00;52.00;;;;;;5112698;28;20204;-63
2023/01/28 07:44:13;;;;;;;2.00;1.70;;;22.00;51.90;;;;;;5115116;28;20231;-62
2023/01/28 07:47:03;;;;;;;1.80;1.70;;;22.00;51.90;;;;;;5114463;28;20719;-63
2023/01/28 07:49:51;;;;;;;1.90;1.80;;;22.00;51.90;;;;;;5115078;28;20230;-63
2023/01/28 07:52:43;;;;;;;2.33;1.70;;;22.10;51.90;;;;;;5116101;28;20233;-62
2023/01/28 07:55:34;;;;;;;2.25;1.67;;;22.00;51.80;;;;;;5115029;28;20637;-62
2023/01/28 07:58:22;;;;;;;2.33;1.70;;;22.00;51.70;;;;;;5098330;28;20224;-63
2023/01/28 08:01:10;;;;;;;2.28;2.00;;;22.00;51.80;;;;;;5095909;28;20196;-63
2023/01/28 08:04:00;;;;;;;2.80;1.90;;;22.00;51.70;;;;;;5095541;28;20203;-63
2023/01/28 08:06:48;;;;;;;2.25;1.88;;;22.00;51.70;;;;;;5095294;28;20298;-62
2023/01/28 08:09:36;;;;;;;2.05;1.80;;;22.00;51.70;;;;;;5093285;28;20299;-63
2023/01/28 08:12:24;;;;;;;2.33;1.98;;;21.90;51.70;;;;;;5094269;28;20318;-63
2023/01/28 08:15:12;;;;;;;3.53;1.90;;;21.90;51.70;;;;;;5095323;28;20216;-63
2023/01/28 08:18:00;;;;;;;1.67;1.58;;;21.90;51.80;;;;;;5095718;28;20395;-63
2023/01/28 08:20:55;;;;;;;1.65;1.55;;;21.80;51.30;;;;;;5093961;28;20956;-62
2023/01/28 08:23:43;;;;;;;1.60;1.33;;;21.80;51.90;;;;;;5094753;28;20631;-62
2023/01/28 08:26:31;;;;;;;2.70;2.03;;;21.80;51.90;;;;;;5093869;28;20367;-62
2023/01/28 08:29:19;;;;;;;1.70;1.60;;;21.80;52.00;;;;;;5094860;28;20256;-63
2023/01/28 08:32:07;;;;;;;1.85;1.70;;;21.80;51.80;;;;;;5094541;28;20746;-62
2023/01/28 08:34:55;;;;;;;1.80;1.70;;;21.90;51.90;;;;;;5092907;28;20200;-63
2023/01/28 08:37:45;;;;;;;1.40;1.30;;;21.80;51.70;;;;;;5092994;28;20220;-63
2023/01/28 08:40:33;;;;;;;1.80;1.70;;;21.90;51.90;;;;;;5094727;28;20267;-63
2023/01/28 08:43:21;;;;;;;2.00;1.80;;;21.90;51.70;;;;;;5094003;28;20215;-63
2023/01/28 08:46:09;;;;;;;1.50;1.40;;;21.90;51.60;;;;;;5094294;28;20483;-63
2023/01/28 08:48:57;;;;;;;2.38;1.65;;;21.90;51.60;;;;;;5094045;28;20482;-63
2023/01/28 08:51:45;;;;;;;2.40;1.85;;;21.80;51.70;;;;;;5092739;28;20725;-63
2023/01/28 08:54:35;;;;;;;1.52;1.42;;;21.80;51.80;;;;;;5095166;28;20611;-63
2023/01/28 08:57:23;;;;;;;1.73;1.58;;;21.80;51.80;;;;;;5094743;28;20662;-63
2023/01/28 09:00:12;;;;;;;1.65;1.50;;;21.90;51.90;;;;;;5092568;28;20686;-63
2023/01/28 09:03:01;;;;;;;1.70;1.52;;;21.90;51.80;;;;;;5093085;28;20595;-62
2023/01/28 09:05:52;;;;;;;1.45;1.35;;;22.00;51.80;;;;;;5092869;28;20284;-62
2023/01/28 09:08:40;;;;;;;1.70;1.60;;;22.20;51.60;;;;;;5092967;28;20342;-63
2023/01/28 09:11:30;;;;;;;1.65;1.45;;;22.00;51.70;;;;;;5092113;28;20196;-63
2023/01/28 09:14:18;;;;;;;1.33;1.23;;;22.10;51.60;;;;;;5092761;28;20200;-63
2023/01/28 09:17:06;;;;;;;1.70;1.60;;;22.10;51.50;;;;;;5092462;28;20207;-63
2023/01/28 09:19:54;;;;;;;1.48;1.38;;;22.10;51.30;;;;;;5092411;28;20318;-62
2023/01/28 09:22:42;;;;;;;2.75;1.45;;;21.00;50.40;;;;;;5092323;28;20616;-63
2023/01/28 09:25:30;;;;;;;1.50;1.40;;;22.20;51.30;;;;;;5092525;28;20195;-63
2023/01/28 09:28:20;;;;;;;1.35;1.25;;;22.10;51.30;;;;;;5092377;28;20747;-63
2023/01/28 09:31:10;;;;;;;1.58;1.48;;;22.10;51.20;;;;;;5092696;28;20274;-64
2023/01/28 09:33:58;;;;;;;1.98;1.20;;;22.10;51.20;;;;;;5092060;28;20552;-63
2023/01/28 09:36:46;;;;;;;1.38;1.27;;;22.10;51.30;;;;;;5091991;28;20608;-63
2023/01/28 09:39:34;;;;;;;1.85;1.50;;;22.00;51.30;;;;;;5092571;28;20301;-63
2023/01/28 09:42:44;;;;;;;1.77;1.40;;;22.00;51.30;;;;;;5093007;28;20200;-63
2023/01/28 09:45:38;;;;;;;1.23;1.13;;;22.00;51.40;;;;;;5092755;28;20207;-62
2023/01/28 09:48:31;;;;;;;1.42;1.30;;;22.00;51.50;;;;;;5091938;28;20230;-63
2023/01/28 09:51:31;;;;;;;1.63;1.15;;;21.90;51.50;;;;;;5091979;28;20195;-63
2023/01/28 09:54:37;;;;;;;1.77;1.25;;;21.90;51.50;;;;;;5091909;28;20317;-63
2023/01/28 09:57:29;;;;;;;1.55;1.45;;;21.90;51.50;;;;;;5101830;28;20667;-63
2023/01/28 10:00:21;;;;;;;2.72;1.20;;;22.00;51.60;;;;;;5112523;28;20215;-63
2023/01/28 10:03:28;;;;;;;1.27;1.17;;;21.90;51.60;;;;;;5112598;28;20797;-62
2023/01/28 10:06:27;;;;;;;1.25;1.10;;;22.00;51.60;;;;;;5113327;28;20215;-64
2023/01/28 10:09:40;;;;;;;1.35;1.25;;;22.00;51.50;;;;;;5113597;27;20267;-64
2023/01/28 10:12:45;;;;;;;2.03;1.20;;;22.00;51.50;;;;;;5113111;28;20230;-64
2023/01/28 10:16:07;;;;;;;1.40;1.30;;;22.00;51.50;;;;;;5112129;28;20221;-64
2023/01/28 10:19:00;;;;;;;1.05;0.90;;;22.00;51.50;;;;;;5113011;28;20268;-62
2023/01/28 10:21:52;;;;;;;1.45;0.90;;;22.10;51.50;;;;;;5111987;28;20199;-63
2023/01/28 10:24:45;;;;;;;1.20;1.10;;;22.00;51.30;;;;;;5111666;28;20699;-62
2023/01/28 10:27:35;;;;;;;1.70;1.10;;;22.00;51.30;;;;;;5112630;28;20269;-63
2023/01/28 10:30:25;;;;;;;1.10;1.00;;;22.10;51.30;;;;;;5111988;28;20218;-63
2023/01/28 10:33:18;;;;;;;1.23;1.13;;;22.10;51.30;;;;;;5111821;28;20747;-63
2023/01/28 10:36:09;;;;;;;2.38;1.33;;;22.20;51.40;;;;;;5112541;28;20226;-63
2023/01/28 10:38:58;;;;;;;3.03;1.00;;;22.10;51.20;;;;;;5110804;28;20710;-62
2023/01/28 10:41:46;;;;;;;1.38;1.27;;;22.10;51.20;;;;;;5112245;28;20206;-62
2023/01/28 10:44:47;;;;;;;1.48;1.00;;;22.20;51.20;;;;;;5112841;28;20199;-63
2023/01/28 10:47:40;;;;;;;1.20;1.10;;;22.20;51.20;;;;;;5111930;28;20268;-63
2023/01/28 10:50:30;;;;;;;2.15;1.20;;;22.20;51.20;;;;;;5111220;28;20302;-62
2023/01/28 10:53:19;;;;;;;3.60;1.00;;;22.20;51.20;;;;;;5111386;28;20195;-62
2023/01/28 10:56:10;;;;;;;1.00;1.00;;;22.20;51.20;;;;;;5112720;28;20667;-62
2023/01/28 10:59:01;;;;;;;1.45;1.17;;;22.10;50.90;;;;;;5092189;28;20270;-62
2023/01/28 11:01:51;;;;;;;1.77;1.17;;;22.10;50.90;;;;;;5092133;28;20223;-64
2023/01/28 11:04:39;;;;;;;1.40;1.10;;;22.20;51.00;;;;;;5092685;28;20734;-64
2023/01/28 11:07:27;;;;;;;2.45;1.17;;;22.10;51.00;;;;;;5090728;28;20276;-62
2023/01/28 11:10:26;;;;;;;1.13;1.02;;;22.10;51.00;;;;;;5092853;28;20285;-64
2023/01/28 11:13:19;;;;;;;3.50;0.85;;;22.00;51.00;;;;;;5090374;28;20261;-63
2023/01/28 11:16:16;;;;;;;1.40;0.93;;;22.00;51.00;;;;;;5093713;28;20200;-63
2023/01/28 11:19:05;;;;;;;1.83;1.00;;;22.10;51.10;;;;;;5095657;28;20338;-64
2023/01/28 11:21:56;;;;;;;2.78;1.20;;;22.00;51.00;;;;;;5095732;28;20303;-63
2023/01/28 11:24:44;;;;;;;1.30;0.80;;;22.00;51.10;;;;;;5095133;28;20210;-64
2023/01/28 11:27:34;;;;;;;1.20;0.93;;;22.00;51.10;;;;;;5095360;28;20764;-64
2023/01/28 11:30:24;;;;;;;1.23;1.10;;;22.00;51.00;;;;;;5096376;28;20689;-63
2023/01/28 11:33:18;;;;;;;1.10;0.90;;;22.00;51.00;;;;;;5096081;28;20236;-63
2023/01/28 11:36:12;;;;;;;2.90;0.93;;;22.10;51.10;;;;;;5096392;28;20204;-63
2023/01/28 11:39:04;;;;;;;1.52;0.90;;;22.10;51.00;;;;;;5094394;28;20219;-63
2023/01/28 11:41:53;;;;;;;1.20;1.00;;;22.10;50.90;;;;;;5096555;28;20203;-63
2023/01/28 11:44:42;;;;;;;1.40;0.88;;;22.10;50.90;;;;;;5096730;28;20207;-63
2023/01/28 11:47:46;;;;;;;1.52;0.90;;;22.00;50.80;;;;;;5095164;28;20636;-63
2023/01/28 11:50:44;;;;;;;1.23;0.93;;;22.10;50.60;;;;;;5095813;28;20226;-63
2023/01/28 11:53:54;;;;;;;1.00;0.90;;;22.00;50.70;;;;;;5095380;28;20231;-63
2023/01/28 11:56:57;;;;;;;1.00;1.00;;;22.00;50.70;;;;;;5099401;28;20274;-62
2023/01/28 11:59:59;;;;;;;1.55;1.00;;;22.00;50.90;;;;;;5115309;28;20640;-64
2023/01/28 12:02:51;;;;;;;0.90;0.90;;;22.00;51.00;;;;;;5115647;28;20195;-63
2023/01/28 12:05:52;;;;;;;2.78;0.90;;;21.90;50.90;;;;;;5115245;28;20199;-63
2023/01/28 12:08:44;;;;;;;1.33;0.82;;;22.20;53.60;;;;;;5115011;28;20352;-63
2023/01/28 12:15:24;;;;;;;1.30;0.85;;;21.90;50.90;;;;;;5114461;28;20279;-62
2023/01/28 12:18:22;;;;;;;1.23;1.00;;;21.90;51.10;;;;;;5115048;28;20278;-62
2023/01/28 12:21:20;;;;;;;1.50;1.00;;;22.00;51.10;;;;;;5113751;28;20328;-62
2023/01/28 12:24:22;;;;;;;0.80;0.80;;;22.00;51.10;;;;;;5114904;28;20332;-63
2023/01/28 12:27:26;;;;;;;2.60;0.90;;;22.00;51.00;;;;;;5115435;27;20199;-62
2023/01/28 12:30:26;;;;;;;2.00;1.27;;;22.00;50.90;;;;;;5114875;28;20247;-62
2023/01/28 12:33:33;;;;;;;1.05;0.95;;;22.10;51.50;;;;;;5114248;28;20611;-62
2023/01/28 12:36:33;;;;;;;1.70;0.95;;;22.10;50.80;;;;;;5114156;28;20195;-62
2023/01/28 12:39:30;;;;;;;1.10;1.00;;;22.10;50.70;;;;;;5114280;28;20235;-63
2023/01/28 12:42:25;;;;;;;0.90;0.80;;;22.10;50.70;;;;;;5114648;28;20721;-62
2023/01/28 12:45:17;;;;;;;1.02;0.82;;;22.00;50.70;;;;;;5114364;28;20222;-62
2023/01/28 12:48:11;;;;;;;1.48;0.85;;;22.10;51.40;;;;;;5114091;28;20248;-62
2023/01/28 12:51:04;;;;;;;1.45;0.90;;;22.10;50.80;;;;;;5113341;28;20195;-63
2023/01/28 12:53:56;;;;;;;1.05;0.90;;;22.10;50.80;;;;;;5115021;28;20257;-63
2023/01/28 12:56:50;;;;;;;0.80;0.80;;;22.00;50.70;;;;;;5110752;28;20623;-63
2023/01/28 12:59:44;;;;;;;0.70;0.70;;;22.00;50.70;;;;;;5093732;28;20254;-63
2023/01/28 13:02:34;;;;;;;0.80;0.80;;;22.00;50.70;;;;;;5093811;28;20231;-63
2023/01/28 13:05:31;;;;;;;1.63;0.90;;;22.00;50.90;;;;;;5093788;28;20282;-62
2023/01/28 13:08:23;;;;;;;0.60;0.60;;;21.90;50.80;;;;;;5093676;28;20242;-63
2023/01/28 13:11:15;;;;;;;1.15;0.77;;;21.90;50.90;;;;;;5093561;28;20709;-63
2023/01/28 13:14:04;;;;;;;1.35;0.80;;;21.90;51.00;;;;;;5093265;28;20679;-63
2023/01/28 13:16:52;;;;;;;1.25;0.77;;;21.90;50.90;;;;;;5093467;28;20279;-62
2023/01/28 13:19:41;;;;;;;0.77;0.77;;;21.90;50.90;;;;;;5093602;28;20212;-62
2023/01/28 13:22:34;;;;;;;0.80;0.80;;;21.90;51.00;;;;;;5093254;28;20204;-64
2023/01/28 13:25:24;;;;;;;1.17;0.80;;;21.90;51.00;;;;;;5093771;28;20691;-64
2023/01/28 13:28:26;;;;;;;1.23;1.13;;;21.90;51.00;;;;;;5093236;28;20262;-64
2023/01/28 13:31:17;;;;;;;0.60;0.60;;;21.80;50.90;;;;;;5093210;28;20745;-64
2023/01/28 13:34:07;;;;;;;1.17;0.73;;;22.00;55.30;;;;;;5093252;28;20203;-62
2023/01/28 13:36:56;;;;;;;0.68;0.68;;;21.90;51.00;;;;;;5092991;28;20708;-64
2023/01/28 13:39:50;;;;;;;1.85;0.82;;;21.90;51.00;;;;;;5091562;28;20219;-64
2023/01/28 13:42:39;;;;;;;0.90;0.88;;;22.00;51.10;;;;;;5093235;28;20277;-64
2023/01/28 13:45:28;;;;;;;1.20;1.08;;;22.00;51.10;;;;;;5092737;28;20292;-64
2023/01/28 13:48:23;;;;;;;0.70;0.70;;;22.00;50.90;;;;;;5092657;28;20602;-64
2023/01/28 13:51:19;;;;;;;1.05;0.70;;;22.10;51.00;;;;;;5092505;28;20234;-64
2023/01/28 13:54:13;;;;;;;0.88;0.73;;;22.10;50.80;;;;;;5093508;28;20575;-63
2023/01/28 13:57:23;;;;;;;0.60;0.60;;;22.10;50.80;;;;;;5098350;28;20736;-63
2023/01/28 14:00:20;;;;;;;0.80;0.80;;;22.10;50.90;;;;;;5111470;28;20292;-64
2023/01/28 14:03:52;;;;;;;0.80;0.70;;;22.10;50.80;;;;;;5112277;28;20282;-64
2023/01/28 14:07:17;;;;;;;1.92;0.70;;;22.10;50.70;;;;;;5112874;28;20248;-63
2023/01/28 14:10:38;;;;;;;1.15;0.90;;;22.10;50.70;;;;;;5109080;28;20231;-64
2023/01/28 14:13:57;;;;;;;1.23;0.80;;;22.10;50.70;;;;;;5113991;27;20214;-63
2023/01/28 14:16:51;;;;;;;0.65;0.65;;;22.00;50.60;;;;;;5112175;28;20673;-63
2023/01/28 14:19:40;;;;;;;1.15;0.70;;;22.00;50.70;;;;;;5112199;28;20250;-62
2023/01/28 14:22:28;;;;;;;0.70;0.60;;;22.00;50.80;;;;;;5111267;28;20624;-62
2023/01/28 14:25:29;;;;;;;0.70;0.70;;;22.00;50.90;;;;;;5112712;28;20667;-62
2023/01/28 14:28:24;;;;;;;0.80;0.70;;;22.00;51.00;;;;;;5113595;27;20759;-62
2023/01/28 14:31:23;;;;;;;1.05;0.70;;;21.90;50.80;;;;;;5112183;28;20284;-62
2023/01/28 14:34:19;;;;;;;0.80;0.70;;;21.90;50.60;;;;;;5112914;28;20203;-64
2023/01/28 14:37:09;;;;;;;0.60;0.60;;;22.00;50.90;;;;;;5112425;28;20329;-64
2023/01/28 14:39:59;;;;;;;0.70;0.70;;;22.00;50.80;;;;;;5111081;28;20302;-64
2023/01/28 14:42:50;;;;;;;1.23;0.77;;;22.00;50.80;;;;;;5111751;28;20191;-63
2023/01/28 14:45:57;;;;;;;0.93;0.60;;;22.00;50.70;;;;;;5112800;28;20206;-63
2023/01/28 14:48:56;;;;;;;1.65;0.80;;;21.80;53.90;;;;;;5112045;28;20219;-63
2023/01/28 14:52:03;;;;;;;0.73;0.73;;;22.00;50.60;;;;;;5110907;28;20282;-62
2023/01/28 14:55:03;;;;;;;0.80;0.70;;;22.10;50.70;;;;;;5112741;28;20284;-62
2023/01/28 14:57:54;;;;;;;0.60;0.60;;;22.10;50.70;;;;;;5098522;28;20277;-62
2023/01/28 15:00:53;;;;;;;0.70;0.70;;;22.10;51.20;;;;;;5091707;28;20302;-62
2023/01/28 15:03:45;;;;;;;1.58;0.70;;;22.10;50.60;;;;;;5091748;28;20237;-63
2023/01/28 15:06:36;;;;;;;0.70;0.70;;;22.10;50.50;;;;;;5091784;28;20378;-62
2023/01/28 15:09:24;;;;;;;0.73;0.70;;;22.10;50.20;;;;;;5091963;28;20595;-62
2023/01/28 15:12:14;;;;;;;0.60;0.60;;;22.00;50.20;;;;;;5091703;28;20199;-62
2023/01/28 15:15:09;;;;;;;0.70;0.70;;;22.00;50.40;;;;;;5091587;28;20202;-62
2023/01/28 15:18:02;;;;;;;1.70;0.70;;;22.00;50.40;;;;;;5091483;28;20271;-62
2023/01/28 15:20:52;;;;;;;0.70;0.70;;;22.00;50.40;;;;;;5091058;28;20703;-63
2023/01/28 15:23:43;;;;;;;1.60;0.70;;;21.90;50.40;;;;;;5091367;28;20203;-62
2023/01/28 15:26:33;;;;;;;1.10;0.90;;;21.90;50.50;;;;;;5091926;28;20257;-63
2023/01/28 15:29:26;;;;;;;2.13;0.95;;;21.80;50.50;;;;;;5090850;28;20250;-62
2023/01/28 15:32:23;;;;;;;0.80;0.80;;;21.80;50.70;;;;;;5091905;28;20234;-63
2023/01/28 15:35:13;;;;;;;2.75;0.90;;;21.80;50.70;;;;;;5091314;28;20292;-62